Terminal Aerodrome Forecast
Issued by NWS Central Illinois

Home | Current Version | Previous Version | Text Only | Print | Product List | Glossary On
Versions: 1 2 3 4 5 6 7 8 9 10 11 12 13 14 15 16 17 18 19 20 21 22 23 24
000
FTUS43 KILX 271420 AAA
TAFSPI
TAF AMD
KSPI 271420Z 2714/2812 28013G20KT 6SM BR VCSH OVC013
      TEMPO 2714/2716 2SM BR OVC009
     FM271800 26012KT P6SM BKN020
     FM272000 25011KT P6SM SCT030
     FM272300 VRB05KT P6SM BKN120=

USA.gov is the U.S. government's official web portal to all federal, state and local government web resources and services.